.
WxDataArchive / Data Records for 2011-11-01
2011-10-31 November 2011 2011-11-02

Data Records for Tuesday, 01 November 2011

Time	Temp	Chill	HIndex	Humid	Dewpt	 Wind 	HiWind	WindDir	Rain 	Barom 
-----	----	-----	------	-----	-----	------	------	-------	-----	----- 
00:00	34.6	34.6	34.6	90	32.0	0	0	---	0.00	30.185 
00:05	34.6	34.6	34.6	90	32.0	0	0	---	0.00	30.185 
00:10	34.4	34.4	34.4	90	31.8	0	0	---	0.00	30.185 
00:15	34.4	34.4	34.4	90	31.8	0	0	---	0.00	30.184 
00:20	34.3	34.3	34.3	90	31.7	0	0	---	0.00	30.184 
00:25	34.3	34.3	34.3	90	31.7	0	0	---	0.00	30.184 
00:30	34.1	34.1	34.1	90	31.5	0	0	---	0.00	30.183 
00:35	34.0	34.0	34.0	91	31.7	0	0	---	0.00	30.183 
00:40	34.0	34.0	34.0	91	31.7	0	0	---	0.00	30.183 
00:45	33.8	33.8	33.8	91	31.5	0	0	---	0.00	30.183 
00:50	33.8	33.8	33.8	91	31.5	0	0	---	0.00	30.183 
00:55	33.7	33.7	33.7	91	31.4	0	0	---	0.00	30.183 
01:00	33.5	33.5	33.5	91	31.2	0	0	---	0.00	30.183 
01:05	33.5	33.5	33.5	91	31.2	0	0	---	0.00	30.183 
01:10	33.5	33.5	33.5	91	31.2	0	0	---	0.00	30.183 
01:15	33.5	33.5	33.5	91	31.2	0	0	---	0.00	30.180 
01:20	33.5	33.5	33.5	91	31.2	0	0	---	0.00	30.180 
01:25	33.4	33.4	33.4	91	31.1	0	0	---	0.00	30.180 
01:30	33.4	33.4	33.4	91	31.1	0	0	---	0.00	30.184 
01:35	33.2	33.2	33.2	91	30.9	0	0	---	0.00	30.184 
01:40	33.1	33.1	33.1	92	31.0	0	0	---	0.00	30.184 
01:45	33.1	33.1	33.1	92	31.0	0	0	---	0.00	30.191 
01:50	32.9	32.9	32.9	92	30.8	0	0	---	0.00	30.191 
01:55	32.9	32.9	32.9	92	30.8	0	0	---	0.00	30.191 
02:00	32.8	32.8	32.8	92	30.7	0	0	---	0.00	30.193 
02:05	32.8	32.8	32.8	92	30.7	0	0	---	0.00	30.193 
02:10	32.7	32.7	32.7	92	30.6	0	0	---	0.00	30.193 
02:15	32.7	32.7	32.7	92	30.6	0	0	---	0.00	30.195 
02:20	32.5	32.5	32.5	92	30.4	0	0	---	0.00	30.195 
02:25	32.5	32.5	32.5	92	30.4	0	0	---	0.00	30.195 
02:30	32.4	32.4	32.4	92	30.3	0	0	---	0.00	30.198 
02:35	32.4	32.4	32.4	92	30.3	0	0	---	0.00	30.198 
02:40	32.4	32.4	32.4	92	30.3	0	0	---	0.00	30.198 
02:45	32.2	32.2	32.2	92	30.1	0	0	---	0.00	30.196 
02:50	32.2	32.2	32.2	92	30.1	0	0	---	0.00	30.196 
02:55	32.1	32.1	32.1	92	30.0	0	0	---	0.00	30.196 
03:00	32.1	32.1	32.1	92	30.0	0	0	---	0.00	30.196 
03:05	32.1	32.1	32.1	92	30.0	0	0	---	0.00	30.196 
03:10	31.9	31.9	31.9	92	29.8	0	0	---	0.00	30.196 
03:15	31.9	31.9	31.9	92	29.8	0	0	---	0.00	30.195 
03:20	31.9	31.9	31.9	92	29.8	0	0	---	0.00	30.195 
03:25	31.8	31.8	31.8	92	29.7	0	0	---	0.00	30.195 
03:30	31.6	31.6	31.6	92	29.5	0	0	---	0.00	30.194 
03:35	31.6	31.6	31.6	92	29.5	0	0	---	0.00	30.194 
03:40	31.5	31.5	31.5	92	29.4	0	0	---	0.00	30.194 
03:45	31.5	31.5	31.5	92	29.4	0	0	---	0.00	30.192 
03:50	31.5	31.5	31.5	92	29.4	0	0	---	0.00	30.192 
03:55	31.3	31.3	31.3	93	29.5	0	0	---	0.00	30.192 
04:00	31.3	31.3	31.3	93	29.5	0	0	---	0.00	30.188 
04:05	31.3	31.3	31.3	93	29.5	0	0	---	0.00	30.188 
04:10	31.3	31.3	31.3	93	29.5	0	0	---	0.00	30.188 
04:15	31.3	31.3	31.3	93	29.5	0	0	---	0.00	30.193 
04:20	31.3	31.3	31.3	93	29.5	0	0	---	0.00	30.193 
04:25	31.3	31.3	31.3	93	29.5	0	0	---	0.00	30.193 
04:30	31.2	31.2	31.2	93	29.4	0	0	---	0.00	30.193 
04:35	31.2	31.2	31.2	93	29.4	0	0	---	0.00	30.193 
04:40	31.2	31.2	31.2	93	29.4	0	0	---	0.00	30.193 
04:45	31.0	31.0	31.0	93	29.2	0	0	---	0.00	30.193 
04:50	31.0	31.0	31.0	93	29.2	0	0	---	0.00	30.193 
04:55	31.0	31.0	31.0	93	29.2	0	0	---	0.00	30.193 
05:00	30.9	30.9	30.9	93	29.1	0	0	---	0.00	30.193 
05:05	30.9	30.9	30.9	93	29.1	0	0	---	0.00	30.193 
05:10	30.9	30.9	30.9	93	29.1	0	0	---	0.00	30.193 
05:15	30.9	30.9	30.9	93	29.1	0	0	---	0.00	30.196 
05:20	30.7	30.7	30.7	93	28.9	0	0	---	0.00	30.196 
05:25	30.7	30.7	30.7	93	28.9	0	0	---	0.00	30.196 
05:30	30.7	30.7	30.7	93	28.9	0	0	---	0.00	30.203 
05:35	30.6	30.6	30.6	93	28.8	0	0	---	0.00	30.203 
05:40	30.6	30.6	30.6	93	28.8	0	0	---	0.00	30.203 
05:45	30.6	30.6	30.6	93	28.8	0	0	---	0.00	30.210 
05:50	30.6	30.6	30.6	93	28.8	0	0	---	0.00	30.210 
05:55	30.4	30.4	30.4	93	28.6	0	0	---	0.00	30.210 
06:00	30.4	30.4	30.4	93	28.6	0	0	---	0.00	30.215 
06:05	30.4	30.4	30.4	93	28.6	0	0	---	0.00	30.215 
06:10	30.3	30.3	30.3	93	28.5	0	0	---	0.00	30.215 
06:15	30.3	30.3	30.3	93	28.5	0	0	---	0.00	30.218 
06:20	30.3	30.3	30.3	93	28.5	0	0	---	0.00	30.218 
06:25	30.3	30.3	30.3	93	28.5	0	0	---	0.00	30.218 
06:30	30.3	30.3	30.3	93	28.5	0	0	---	0.00	30.226 
06:35	30.3	30.3	30.3	93	28.5	0	0	---	0.00	30.226 
06:40	30.3	30.3	30.3	93	28.5	0	0	---	0.00	30.226 
06:45	30.1	30.1	30.1	93	28.3	0	0	---	0.00	30.227 
06:50	30.1	30.1	30.1	93	28.3	0	0	---	0.00	30.227 
06:55	30.1	30.1	30.1	93	28.3	0	0	---	0.00	30.227 
07:00	30.0	30.0	30.0	93	28.2	0	0	---	0.00	30.223 
07:05	30.0	30.0	30.0	93	28.2	0	0	---	0.00	30.223 
07:10	30.0	30.0	30.0	93	28.2	0	0	---	0.00	30.223 
07:15	30.0	30.0	30.0	93	28.2	0	0	---	0.00	30.223 
07:20	30.0	30.0	30.0	93	28.2	0	0	---	0.00	30.223 
07:25	30.0	30.0	30.0	93	28.2	0	0	---	0.00	30.223 
07:30	30.0	30.0	30.0	94	28.5	0	0	---	0.00	30.230 
07:35	30.0	30.0	30.0	94	28.5	0	0	---	0.00	30.230 
07:40	30.0	30.0	30.0	94	28.5	0	0	---	0.00	30.230 
07:45	30.0	30.0	30.0	94	28.5	0	0	---	0.00	30.232 
07:50	30.0	30.0	30.0	94	28.5	0	0	---	0.00	30.232 
07:55	30.0	30.0	30.0	94	28.5	0	0	---	0.00	30.232 
08:00	30.0	30.0	30.0	94	28.5	0	0	---	0.00	30.232 
08:05	30.0	30.0	30.0	94	28.5	0	0	---	0.00	30.232 
08:10	30.0	30.0	30.0	94	28.5	0	0	---	0.00	30.232 
08:15	30.0	30.0	30.0	94	28.5	0	0	---	0.00	30.239 
08:20	30.0	30.0	30.0	94	28.5	0	0	---	0.00	30.239 
08:25	30.0	30.0	30.0	94	28.5	0	0	---	0.00	30.239 
08:30	30.0	30.0	30.0	94	28.5	0	0	---	0.00	30.242 
08:35	30.0	30.0	30.0	94	28.5	0	0	---	0.00	30.242 
08:40	30.0	30.0	30.0	94	28.5	0	0	---	0.00	30.242 
08:45	30.0	30.0	30.0	94	28.5	0	0	---	0.00	30.247 
08:50	30.1	30.1	30.1	94	28.6	0	0	---	0.00	30.247 
08:55	30.4	30.4	30.4	94	28.9	0	0	---	0.00	30.247 
09:00	30.7	30.7	30.7	95	29.4	0	0	---	0.00	30.251 
09:05	31.2	31.2	31.2	94	29.7	0	0	---	0.00	30.251 
09:10	31.3	31.3	31.3	94	29.8	0	0	---	0.00	30.251 
09:15	31.6	31.6	31.6	94	30.1	0	0	---	0.00	30.256 
09:20	31.9	31.9	31.9	94	30.4	0	0	---	0.00	30.256 
09:25	32.4	32.4	32.4	95	31.1	0	0	---	0.00	30.256 
09:30	33.7	33.7	33.7	96	32.7	0	0	---	0.00	30.253 
09:35	35.0	35.0	35.0	96	34.0	0	1	0	0.00	30.253 
09:40	36.0	36.0	36.0	96	35.0	0	1	0	0.00	30.253 
09:45	36.9	36.9	36.9	96	35.9	0	1	0	0.00	30.250 
09:50	37.8	37.8	37.8	96	36.8	0	0	---	0.00	30.250 
09:55	38.3	38.3	38.3	96	37.3	0	1	0	0.00	30.250 
10:00	38.9	38.9	38.9	96	37.9	0	1	0	0.00	30.248 
10:05	39.5	39.5	39.5	95	38.2	0	0	---	0.00	30.248 
10:10	39.5	39.5	39.5	94	37.9	0	1	0	0.00	30.248 
10:15	40.2	40.2	40.2	93	38.3	0	1	0	0.00	30.250 
10:20	41.1	41.1	41.1	92	39.0	0	2	0	0.00	30.250 
10:25	41.5	41.5	41.5	90	38.8	0	1	0	0.00	30.250 
10:30	42.2	42.2	42.2	89	39.2	0	1	0	0.00	30.246 
10:35	43.1	43.1	43.1	87	39.5	0	2	0	0.00	30.246 
10:40	43.6	43.6	43.6	85	39.4	0	1	338	0.00	30.246 
10:45	44.6	44.6	44.6	82	39.4	0	1	338	0.00	30.249 
10:50	45.5	45.5	45.5	79	39.4	0	1	338	0.00	30.249 
10:55	46.5	46.5	46.5	77	39.7	0	1	338	0.00	30.249 
11:00	47.3	47.3	47.3	73	39.1	1	2	22	0.00	30.245 
11:05	47.9	47.9	47.9	70	38.6	0	2	22	0.00	30.245 
11:10	48.6	48.6	48.6	70	39.3	0	1	22	0.00	30.245 
11:15	49.4	49.4	49.4	69	39.7	0	1	22	0.00	30.248 
11:20	49.8	49.8	49.8	65	38.5	0	3	22	0.00	30.248 
11:25	50.2	50.2	50.2	65	38.9	0	1	292	0.00	30.248 
11:30	50.8	50.8	50.8	64	39.1	0	1	292	0.00	30.246 
11:35	51.4	51.4	51.4	61	38.4	0	1	292	0.00	30.246 
11:40	51.9	51.9	51.9	62	39.3	0	1	292	0.00	30.246 
11:45	52.3	52.3	52.3	61	39.3	0	1	292	0.00	30.246 
11:50	52.5	52.5	52.5	57	37.7	1	3	292	0.00	30.246 
11:55	52.3	52.3	52.3	57	37.5	1	4	248	0.00	30.246 
12:00	52.5	52.5	52.5	57	37.7	1	4	225	0.00	30.244 
12:05	52.9	52.9	52.9	59	39.0	0	2	135	0.00	30.244 
12:10	53.2	53.2	53.2	57	38.4	0	2	292	0.00	30.244 
12:15	53.2	53.2	53.2	56	37.9	1	3	292	0.00	30.238 
12:20	53.2	53.2	53.2	56	37.9	1	3	248	0.00	30.238 
12:25	53.5	53.5	53.5	56	38.2	1	3	248	0.00	30.238 
12:30	53.8	53.8	53.8	56	38.5	1	4	248	0.00	30.235 
12:35	53.9	53.9	53.9	54	37.6	1	4	248	0.00	30.235 
12:40	54.2	54.2	54.2	54	37.9	1	3	248	0.00	30.235 
12:45	54.5	54.5	54.5	53	37.7	1	3	248	0.00	30.227 
12:50	54.7	54.7	54.7	53	37.9	1	3	270	0.00	30.227 
12:55	55.0	55.0	55.0	50	36.7	1	4	270	0.00	30.227 
13:00	55.3	55.3	55.3	50	37.0	1	3	248	0.00	30.221 
13:05	55.6	55.6	55.6	48	36.2	1	3	292	0.00	30.221 
13:10	55.7	55.7	55.7	50	37.3	1	3	248	0.00	30.221 
13:15	56.0	56.0	56.0	49	37.1	1	3	225	0.00	30.216 
13:20	56.3	56.3	56.3	48	36.9	1	4	270	0.00	30.216 
13:25	56.5	56.5	56.5	46	36.0	2	4	270	0.00	30.216 
13:30	56.5	56.5	56.5	46	36.0	1	4	270	0.00	30.204 
13:35	56.6	56.6	56.6	48	37.1	1	4	248	0.00	30.204 
13:40	56.7	56.7	56.7	47	36.7	0	2	248	0.00	30.204 
13:45	57.0	57.0	57.0	47	37.0	0	2	248	0.00	30.201 
13:50	57.2	57.2	57.2	46	36.6	1	3	90	0.00	30.201 
13:55	57.2	57.2	57.2	44	35.5	1	4	90	0.00	30.201 
14:00	57.2	57.2	57.2	42	34.3	1	4	90	0.00	30.195 
14:05	57.6	57.6	57.6	45	36.4	0	3	112	0.00	30.195 
14:10	58.0	58.0	58.0	46	37.3	1	2	45	0.00	30.195 
14:15	58.1	58.1	58.1	44	36.3	1	2	22	0.00	30.189 
14:20	58.4	58.4	58.4	42	35.4	1	4	248	0.00	30.189 
14:25	58.6	58.6	58.6	41	35.0	1	5	248	0.00	30.189 
14:30	58.7	58.7	58.7	42	35.7	1	3	248	0.00	30.189 
14:35	58.9	58.9	58.9	42	35.9	1	3	90	0.00	30.189 
14:40	59.0	59.0	59.0	42	35.9	1	5	112	0.00	30.189 
14:45	59.0	59.0	59.0	42	35.9	1	4	112	0.00	30.183 
14:50	59.0	59.0	59.0	41	35.3	1	3	90	0.00	30.183 
14:55	59.2	59.2	59.2	43	36.7	0	3	90	0.00	30.183 
15:00	59.5	59.5	59.5	42	36.4	1	3	90	0.00	30.176 
15:05	59.6	59.6	59.6	40	35.3	0	3	270	0.00	30.176 
15:10	59.8	59.8	59.8	40	35.4	0	3	248	0.00	30.176 
15:15	60.1	60.1	60.1	42	36.9	0	3	112	0.00	30.173 
15:20	60.2	60.2	60.2	40	35.8	1	3	112	0.00	30.173 
15:25	60.4	60.4	60.4	40	36.0	1	3	225	0.00	30.173 
15:30	60.4	60.4	60.4	39	35.3	1	4	90	0.00	30.173 
15:35	60.5	60.5	60.5	39	35.4	1	3	45	0.00	30.173 
15:40	60.4	60.4	60.4	39	35.3	2	5	90	0.00	30.173 
15:45	60.4	60.4	60.4	41	36.6	1	3	90	0.00	30.172 
15:50	60.5	60.5	60.5	39	35.4	1	3	270	0.00	30.172 
15:55	60.9	60.9	60.9	41	37.0	1	6	270	0.00	30.172 
16:00	60.9	60.9	60.9	38	35.1	1	5	112	0.00	30.168 
16:05	61.0	61.0	61.0	40	36.5	0	2	90	0.00	30.168 
16:10	61.2	61.2	61.2	40	36.7	0	2	90	0.00	30.168 
16:15	61.3	61.3	61.3	39	36.1	1	3	112	0.00	30.170 
16:20	61.2	61.2	61.2	38	35.4	1	4	90	0.00	30.170 
16:25	61.2	61.2	61.2	40	36.7	1	3	68	0.00	30.170 
16:30	61.2	61.2	61.2	39	36.0	0	3	248	0.00	30.168 
16:35	61.2	61.2	61.2	39	36.0	1	4	112	0.00	30.168 
16:40	61.2	61.2	61.2	39	36.0	1	4	68	0.00	30.168 
16:45	61.0	61.0	61.0	39	35.9	1	3	68	0.00	30.163 
16:50	61.2	61.2	61.2	39	36.0	1	3	112	0.00	30.163 
16:55	61.2	61.2	61.2	38	35.4	1	3	112	0.00	30.163 
17:00	61.2	61.2	61.2	39	36.0	0	2	315	0.00	30.165 
17:05	61.2	61.2	61.2	39	36.0	0	3	45	0.00	30.165 
17:10	61.2	61.2	61.2	39	36.0	1	6	112	0.00	30.165 
17:15	61.2	61.2	61.2	40	36.7	0	3	315	0.00	30.167 
17:20	61.2	61.2	61.2	39	36.0	0	2	315	0.00	30.167 
17:25	61.3	61.3	61.3	38	35.5	0	2	338	0.00	30.167 
17:30	61.3	61.3	61.3	39	36.1	0	3	338	0.00	30.165 
17:35	61.2	61.2	61.2	39	36.0	1	4	248	0.00	30.165 
17:40	61.0	61.0	61.0	40	36.5	0	1	90	0.00	30.165 
17:45	60.9	60.9	60.9	41	37.0	0	2	90	0.00	30.161 
17:50	60.7	60.7	60.7	41	36.9	0	2	90	0.00	30.161 
17:55	60.5	60.5	60.5	41	36.7	0	2	338	0.00	30.161 
18:00	60.4	60.4	60.4	41	36.6	0	2	338	0.00	30.160 
18:05	60.1	60.1	60.1	42	36.9	0	1	338	0.00	30.160 
18:10	59.9	59.9	59.9	41	36.1	0	2	0	0.00	30.160 
18:15	59.8	59.8	59.8	41	36.1	0	2	45	0.00	30.157 
18:20	59.6	59.6	59.6	42	36.5	0	3	68	0.00	30.157 
18:25	59.5	59.5	59.5	42	36.4	0	2	68	0.00	30.157 
18:30	59.3	59.3	59.3	42	36.2	0	2	68	0.00	30.158 
18:35	59.0	59.0	59.0	43	36.5	0	1	68	0.00	30.158 
18:40	58.9	58.9	58.9	43	36.4	0	1	68	0.00	30.158 
18:45	58.6	58.6	58.6	44	36.8	0	1	68	0.00	30.158 
18:50	58.0	58.0	58.0	46	37.3	0	0	---	0.00	30.158 
18:55	57.2	57.2	57.2	48	37.7	0	0	---	0.00	30.158 
19:00	56.3	56.3	56.3	49	37.4	0	0	---	0.00	30.163 
19:05	55.6	55.6	55.6	50	37.3	0	0	---	0.00	30.163 
19:10	54.8	54.8	54.8	52	37.5	0	0	---	0.00	30.163 
19:15	54.1	54.1	54.1	54	37.8	0	0	---	0.00	30.167 
19:20	53.5	53.5	53.5	55	37.7	0	0	---	0.00	30.167 
19:25	52.8	52.8	52.8	56	37.5	0	0	---	0.00	30.167 
19:30	52.2	52.2	52.2	57	37.4	0	0	---	0.00	30.171 
19:35	51.7	51.7	51.7	58	37.4	0	0	---	0.00	30.171 
19:40	51.3	51.3	51.3	58	37.0	0	0	---	0.00	30.171 
19:45	51.0	51.0	51.0	59	37.2	0	0	---	0.00	30.177 
19:50	50.5	50.5	50.5	60	37.1	0	0	---	0.00	30.177 
19:55	50.2	50.2	50.2	62	37.7	0	0	---	0.00	30.177 
20:00	49.8	49.8	49.8	63	37.7	0	0	---	0.00	30.180 
20:05	49.4	49.4	49.4	64	37.7	0	0	---	0.00	30.180 
20:10	49.1	49.1	49.1	65	37.8	0	0	---	0.00	30.180 
20:15	48.8	48.8	48.8	65	37.6	0	0	---	0.00	30.182 
20:20	48.5	48.5	48.5	65	37.3	0	0	---	0.00	30.182 
20:25	48.2	48.2	48.2	65	37.0	0	0	---	0.00	30.182 
20:30	47.9	47.9	47.9	67	37.5	0	0	---	0.00	30.182 
20:35	47.6	47.6	47.6	68	37.6	0	0	---	0.00	30.182 
20:40	47.3	47.3	47.3	69	37.7	0	0	---	0.00	30.182 
20:45	47.0	47.0	47.0	69	37.4	0	0	---	0.00	30.182 
20:50	46.8	46.8	46.8	70	37.5	0	0	---	0.00	30.182 
20:55	46.5	46.5	46.5	70	37.3	0	0	---	0.00	30.182 
21:00	46.4	46.4	46.4	71	37.5	0	0	---	0.00	30.184 
21:05	46.1	46.1	46.1	71	37.2	0	0	---	0.00	30.184 
21:10	46.0	46.0	46.0	72	37.5	0	0	---	0.00	30.184 
21:15	45.7	45.7	45.7	73	37.5	0	0	---	0.00	30.177 
21:20	45.5	45.5	45.5	73	37.4	0	0	---	0.00	30.177 
21:25	45.7	45.7	45.7	73	37.5	0	0	---	0.00	30.177 
21:30	45.8	45.8	45.8	72	37.3	0	0	---	0.00	30.177 
21:35	46.1	46.1	46.1	71	37.2	0	0	---	0.00	30.177 
21:40	46.4	46.4	46.4	70	37.2	0	1	68	0.00	30.177 
21:45	46.8	46.8	46.8	69	37.2	0	1	68	0.00	30.178 
21:50	47.4	47.4	47.4	67	37.0	0	1	68	0.00	30.178 
21:55	48.2	48.2	48.2	65	37.0	0	1	68	0.00	30.178 
22:00	48.9	48.9	48.9	64	37.3	0	3	135	0.00	30.176 
22:05	49.2	49.2	49.2	63	37.1	0	1	135	0.00	30.176 
22:10	49.4	49.4	49.4	63	37.3	0	0	---	0.00	30.176 
22:15	49.2	49.2	49.2	63	37.1	0	0	---	0.00	30.176 
22:20	49.1	49.1	49.1	63	37.1	0	0	---	0.00	30.176 
22:25	48.9	48.9	48.9	63	36.9	0	1	135	0.00	30.176 
22:30	48.9	48.9	48.9	63	36.9	0	1	135	0.00	30.176 
22:35	49.1	49.1	49.1	62	36.6	0	0	---	0.00	30.176 
22:40	49.1	49.1	49.1	62	36.6	0	0	---	0.00	30.176 
22:45	49.2	49.2	49.2	62	36.7	0	2	135	0.00	30.178 
22:50	49.5	49.5	49.5	61	36.6	0	3	112	0.00	30.178 
22:55	49.8	49.8	49.8	60	36.5	0	1	135	0.00	30.178 
23:00	50.1	50.1	50.1	60	36.8	0	2	135	0.00	30.180 
23:05	50.4	50.4	50.4	59	36.6	0	2	68	0.00	30.180 
23:10	50.5	50.5	50.5	59	36.7	0	1	68	0.00	30.180 
23:15	50.4	50.4	50.4	59	36.6	0	1	68	0.00	30.174 
23:20	50.5	50.5	50.5	59	36.7	0	2	68	0.00	30.174 
23:25	50.5	50.5	50.5	59	36.7	0	2	68	0.00	30.174 
23:30	50.5	50.5	50.5	59	36.7	0	1	68	0.00	30.173 
23:35	50.4	50.4	50.4	59	36.6	0	1	68	0.00	30.173 
23:40	50.2	50.2	50.2	59	36.4	0	1	68	0.00	30.173 
23:45	50.2	50.2	50.2	59	36.4	0	1	68	0.00	30.171 
23:50	50.1	50.1	50.1	60	36.8	0	1	68	0.00	30.171 
23:55	49.9	49.9	49.9	60	36.6	0	1	68	0.00	30.171 

CoCoRaHS
IN-AL-39
A2 Web Hosting
Creative Commons License
GoDaddy
search engine by freefind advanced

loaded 2018-11-20 03:06:55 • last modified 2010-11-18 10:43:29
Privacy PolicyDisclaimer
• wx.awcolley.com is powered by PmWiki v.2002016 •
• all content (unless otherwise noted) © 2018 A W Colley